Airport View

Enter AWOS ICAO identifier for current METAR.

ex. KFNL

19 Feb 2019 13:41

Frequency: 125.975

Phone: 916-641-1272

Other Area AWOS: KMHR - KSMF - KSAC - KLHM

TAF KMHR 191128Z 1912/2012 31006KT P6SM SKC